createdAt,value
2018-12-13T00:01:02.326Z,11.83
2018-12-13T00:03:35.090Z,10.87
2018-12-13T00:06:10.755Z,10.57
2018-12-13T00:08:45.766Z,10.67
2018-12-13T00:11:15.562Z,10.93
2018-12-13T00:13:46.102Z,10.80
2018-12-13T00:16:21.334Z,10.37
2018-12-13T00:18:52.842Z,10.57
2018-12-13T00:21:25.147Z,10.90
2018-12-13T00:23:58.378Z,9.30
2018-12-13T00:26:27.770Z,9.80
2018-12-13T00:28:57.165Z,9.73
2018-12-13T00:33:56.075Z,10.20
2018-12-13T00:36:28.502Z,9.63
2018-12-13T00:38:59.317Z,9.63
2018-12-13T00:41:30.420Z,8.70
2018-12-13T00:44:01.498Z,9.10
2018-12-13T00:46:34.695Z,9.83
2018-12-13T00:49:04.774Z,9.70
2018-12-13T00:51:35.206Z,9.20
2018-12-13T00:54:08.172Z,9.87
2018-12-13T00:56:38.296Z,9.50
2018-12-13T00:59:09.094Z,9.63
2018-12-13T01:01:42.399Z,10.23
2018-12-13T01:04:17.504Z,10.17
2018-12-13T01:06:52.149Z,10.10
2018-12-13T01:09:27.807Z,9.17
2018-12-13T01:12:02.774Z,8.43
2018-12-13T01:14:34.896Z,9.37
2018-12-13T01:17:04.359Z,10.10
2018-12-13T01:19:33.386Z,11.17
2018-12-13T01:22:09.066Z,10.70
2018-12-13T01:24:44.771Z,10.97
2018-12-13T01:27:18.047Z,10.47
2018-12-13T01:29:52.935Z,10.27
2018-12-13T01:34:51.025Z,9.93
2018-12-13T01:37:25.946Z,10.20
2018-12-13T01:40:00.974Z,10.50
2018-12-13T01:42:30.382Z,11.13
2018-12-13T01:45:05.867Z,10.30
2018-12-13T01:47:36.906Z,10.90
2018-12-13T01:50:10.050Z,10.27
2018-12-13T01:52:42.293Z,11.23
2018-12-13T01:55:11.651Z,10.47
2018-12-13T01:57:45.186Z,12.50
2018-12-13T02:00:17.526Z,11.47
2018-12-13T02:02:53.250Z,12.73
2018-12-13T02:05:28.637Z,12.93
2018-12-13T02:08:01.842Z,11.93
2018-12-13T02:10:32.787Z,13.70
2018-12-13T02:13:04.634Z,13.37
2018-12-13T02:15:35.915Z,12.70
2018-12-13T02:18:10.865Z,14.03
2018-12-13T02:20:45.728Z,12.80
2018-12-13T02:23:16.591Z,12.57
2018-12-13T02:25:49.654Z,14.37
2018-12-13T02:28:25.174Z,14.07
2018-12-13T02:31:00.383Z,14.40
2018-12-13T02:33:32.792Z,14.80
2018-12-13T02:36:08.039Z,13.70
2018-12-13T02:38:37.047Z,13.30
2018-12-13T02:41:06.851Z,13.80
2018-12-13T02:43:35.888Z,14.73
2018-12-13T02:46:05.494Z,15.33
2018-12-13T02:48:37.515Z,13.40
2018-12-13T02:51:06.516Z,14.93
2018-12-13T02:53:39.680Z,14.57
2018-12-13T02:56:10.835Z,13.70
2018-12-13T02:58:40.787Z,14.80
2018-12-13T03:01:12.796Z,13.57
2018-12-13T03:03:43.132Z,14.03
2018-12-13T03:06:16.498Z,15.43
2018-12-13T03:08:49.115Z,14.40
2018-12-13T03:11:24.543Z,13.50
2018-12-13T03:13:53.898Z,14.27
2018-12-13T03:16:23.311Z,14.67
2018-12-13T03:18:54.179Z,15.40
2018-12-13T03:21:23.592Z,15.53
2018-12-13T03:23:53.747Z,14.97
2018-12-13T03:26:24.096Z,15.53
2018-12-13T03:28:57.221Z,15.27
2018-12-13T03:31:28.160Z,16.00
2018-12-13T03:34:01.154Z,15.27
2018-12-13T03:36:34.989Z,15.10
2018-12-13T03:39:09.491Z,15.77
2018-12-13T03:41:42.143Z,15.33
2018-12-13T03:44:12.687Z,13.77
2018-12-13T03:46:43.931Z,14.53
2018-12-13T03:49:17.254Z,16.60
2018-12-13T03:51:51.706Z,14.17
2018-12-13T03:54:20.699Z,15.87
2018-12-13T03:56:53.589Z,14.23
2018-12-13T03:59:23.040Z,15.37
2018-12-13T04:01:56.834Z,15.90
2018-12-13T04:04:29.069Z,15.37
2018-12-13T04:06:58.472Z,14.97
2018-12-13T04:09:34.554Z,14.37
2018-12-13T04:12:04.447Z,15.47
2018-12-13T04:14:38.907Z,16.10
2018-12-13T04:17:13.642Z,14.47
2018-12-13T04:19:46.546Z,15.47
2018-12-13T04:22:15.547Z,13.77
2018-12-13T04:24:44.775Z,16.67
2018-12-13T04:27:14.386Z,14.80
2018-12-13T04:29:49.575Z,13.47
2018-12-13T04:32:21.966Z,15.50
2018-12-13T04:34:52.881Z,14.83
2018-12-13T04:37:23.575Z,14.60
2018-12-13T04:39:56.532Z,14.67
2018-12-13T04:42:29.691Z,15.43
2018-12-13T04:45:02.691Z,13.53
2018-12-13T04:47:35.224Z,14.00
2018-12-13T04:50:05.866Z,14.50
2018-12-13T04:52:39.512Z,14.50
2018-12-13T04:55:11.922Z,14.17
2018-12-13T04:57:40.926Z,15.63
2018-12-13T05:00:15.362Z,14.77
2018-12-13T05:02:50.289Z,14.67
2018-12-13T05:05:21.122Z,15.47
2018-12-13T05:07:50.958Z,13.73
2018-12-13T05:10:31.572Z,13.77
2018-12-13T05:13:05.225Z,14.27
2018-12-13T05:15:35.962Z,14.80
2018-12-13T05:18:05.579Z,14.33
2018-12-13T05:20:36.890Z,13.67
2018-12-13T05:23:12.246Z,14.57
2018-12-13T05:25:46.711Z,14.10
2018-12-13T05:28:19.272Z,13.53
2018-12-13T05:30:54.130Z,14.60
2018-12-13T05:33:24.585Z,13.30
2018-12-13T05:35:56.938Z,13.80
2018-12-13T05:38:29.805Z,14.20
2018-12-13T05:41:01.933Z,12.50
2018-12-13T05:43:35.055Z,13.50
2018-12-13T05:46:07.367Z,13.87
2018-12-13T05:48:40.099Z,13.23
2018-12-13T05:51:11.690Z,12.23
2018-12-13T05:53:41.430Z,12.87
2018-12-13T05:56:16.715Z,12.53
2018-12-13T05:58:47.050Z,11.50
2018-12-13T06:01:20.087Z,12.47
2018-12-13T06:03:55.053Z,12.07
2018-12-13T06:06:30.166Z,13.47
2018-12-13T06:08:59.593Z,11.77
2018-12-13T06:11:30.414Z,12.33
2018-12-13T06:13:59.496Z,12.10
2018-12-13T06:16:28.502Z,12.00
2018-12-13T06:18:57.918Z,11.53
2018-12-13T06:21:36.895Z,12.43
2018-12-13T06:24:09.897Z,11.27
2018-12-13T06:26:41.918Z,11.23
2018-12-13T06:29:11.063Z,12.07
2018-12-13T06:31:43.978Z,11.70
2018-12-13T06:34:18.659Z,11.60
2018-12-13T06:36:48.042Z,13.13
2018-12-13T06:39:20.675Z,10.30
2018-12-13T06:41:51.246Z,10.77
2018-12-13T06:44:26.543Z,10.90
2018-12-13T06:46:59.169Z,10.83
2018-12-13T06:49:31.776Z,11.57
2018-12-13T06:52:02.338Z,11.60
2018-12-13T06:54:31.682Z,11.60
2018-12-13T06:57:01.479Z,10.57
2018-12-13T06:59:36.555Z,10.93
2018-12-13T07:02:06.307Z,10.70
2018-12-13T07:04:38.686Z,10.67
2018-12-13T07:07:11.874Z,10.37
2018-12-13T07:09:41.507Z,11.30
2018-12-13T07:12:13.942Z,10.37
2018-12-13T07:14:43.230Z,11.07
2018-12-13T07:17:15.522Z,11.40
2018-12-13T07:19:48.259Z,10.60
2018-12-13T07:22:21.195Z,10.43
2018-12-13T07:24:54.310Z,8.63
2018-12-13T07:27:23.715Z,11.67
2018-12-13T07:29:58.558Z,11.47
2018-12-13T07:32:34.127Z,11.23
2018-12-13T07:35:07.273Z,10.60
2018-12-13T07:37:42.352Z,11.40
2018-12-13T07:40:14.679Z,10.83
2018-12-13T07:42:50.226Z,11.00
2018-12-13T07:45:24.686Z,8.43
2018-12-13T07:47:55.127Z,11.37
2018-12-13T07:50:27.759Z,11.17
2018-12-13T07:53:02.212Z,11.30
2018-12-13T07:55:33.139Z,10.23
2018-12-13T07:58:06.630Z,10.57
2018-12-13T08:00:39.818Z,10.87
2018-12-13T08:03:12.576Z,11.00
2018-12-13T08:05:41.604Z,10.03
2018-12-13T08:08:20.809Z,10.87
2018-12-13T08:10:53.548Z,11.00
2018-12-13T08:13:25.678Z,11.87
2018-12-13T08:16:00.747Z,11.07
2018-12-13T08:18:32.967Z,10.83
2018-12-13T08:21:08.290Z,11.07
2018-12-13T08:23:38.826Z,11.50
2018-12-13T08:26:15.946Z,10.77
2018-12-13T08:28:45.046Z,10.60
2018-12-13T08:31:20.036Z,12.03
2018-12-13T08:33:52.654Z,10.97
2018-12-13T08:36:27.934Z,10.37
2018-12-13T08:38:57.150Z,12.70
2018-12-13T08:41:29.987Z,11.30
2018-12-13T08:44:02.208Z,10.30
2018-12-13T08:46:36.505Z,11.57
2018-12-13T08:49:15.880Z,11.13
2018-12-13T08:51:55.346Z,11.47
2018-12-13T08:54:36.499Z,11.60
2018-12-13T08:57:09.907Z,11.07
2018-12-13T08:59:44.888Z,10.73
2018-12-13T09:02:19.780Z,10.73
2018-12-13T09:04:54.911Z,9.90
2018-12-13T09:07:29.549Z,11.30
2018-12-13T09:10:05.048Z,11.60
2018-12-13T09:12:38.292Z,11.57
2018-12-13T09:15:10.990Z,13.20
2018-12-13T09:17:41.423Z,11.40
2018-12-13T09:20:13.731Z,11.10
2018-12-13T09:22:42.991Z,11.60
2018-12-13T09:25:12.397Z,11.50
2018-12-13T09:27:47.494Z,12.30
2018-12-13T09:30:22.087Z,11.93
2018-12-13T09:32:54.489Z,11.00
2018-12-13T09:35:24.905Z,13.33
2018-12-13T09:38:00.146Z,12.47
2018-12-13T09:40:29.154Z,11.60
2018-12-13T09:43:01.184Z,11.53
2018-12-13T09:45:33.798Z,12.53
2018-12-13T09:48:06.798Z,12.43
2018-12-13T09:50:41.758Z,11.63
2018-12-13T09:53:16.334Z,10.83
2018-12-13T09:55:45.722Z,11.77
2018-12-13T09:58:18.444Z,11.60
2018-12-13T10:00:53.863Z,12.87
2018-12-13T10:03:29.298Z,11.50
2018-12-13T10:06:04.074Z,12.87
2018-12-13T10:08:33.091Z,12.83
2018-12-13T10:11:03.798Z,11.07
2018-12-13T10:13:32.803Z,11.07
2018-12-13T10:16:02.418Z,11.87
2018-12-13T10:18:37.542Z,10.97
2018-12-13T10:21:07.362Z,12.67
2018-12-13T10:23:44.167Z,12.17
2018-12-13T10:26:19.847Z,10.23
2018-12-13T10:28:49.267Z,11.70
2018-12-13T10:31:24.620Z,10.37
2018-12-13T10:33:53.659Z,10.90
2018-12-13T10:36:23.323Z,11.67
2018-12-13T10:38:58.655Z,11.13
2018-12-13T10:41:28.959Z,9.67
2018-12-13T10:44:01.971Z,11.73
2018-12-13T10:46:37.203Z,10.07
2018-12-13T10:49:08.450Z,10.83
2018-12-13T10:51:43.315Z,9.77
2018-12-13T10:54:18.606Z,10.93
2018-12-13T10:56:49.851Z,11.37
2018-12-13T10:59:19.292Z,11.20
2018-12-13T11:01:55.262Z,10.70
2018-12-13T11:04:24.909Z,10.40
2018-12-13T11:06:58.025Z,11.97
2018-12-13T11:09:30.147Z,11.30
2018-12-13T11:12:03.430Z,11.33
2018-12-13T11:14:38.694Z,11.57
2018-12-13T11:17:07.702Z,11.07
2018-12-13T11:19:39.228Z,12.33
2018-12-13T11:22:08.670Z,14.67
2018-12-13T11:24:39.619Z,11.27
2018-12-13T11:27:22.419Z,11.83
2018-12-13T11:30:05.475Z,10.27
2018-12-13T11:32:34.479Z,10.40
2018-12-13T11:35:09.979Z,11.40
2018-12-13T11:37:38.983Z,10.83
2018-12-13T11:40:11.328Z,10.97
2018-12-13T11:42:43.243Z,11.13
2018-12-13T11:45:16.211Z,10.97
2018-12-13T11:47:50.875Z,10.33
2018-12-13T11:50:26.235Z,10.63
2018-12-13T11:52:55.614Z,9.73
2018-12-13T11:55:35.421Z,10.50
2018-12-13T11:58:12.122Z,10.37
2018-12-13T12:00:42.952Z,9.87
2018-12-13T12:03:49.399Z,10.67
2018-12-13T12:06:20.351Z,10.40
2018-12-13T12:08:49.345Z,9.37
2018-12-13T12:11:24.747Z,9.73
2018-12-13T12:13:59.343Z,9.50
2018-12-13T12:16:34.829Z,10.20
2018-12-13T12:19:10.643Z,10.37
2018-12-13T12:21:44.059Z,9.10
2018-12-13T12:24:19.256Z,8.97
2018-12-13T12:26:51.878Z,10.07
2018-12-13T12:29:27.238Z,9.50
2018-12-13T12:32:02.172Z,10.13
2018-12-13T12:34:34.823Z,9.40
2018-12-13T12:37:05.751Z,8.73
2018-12-13T12:39:36.650Z,9.90
2018-12-13T12:42:05.682Z,9.37
2018-12-13T12:44:41.483Z,9.20
2018-12-13T12:47:11.094Z,9.70
2018-12-13T12:49:40.498Z,7.57
2018-12-13T12:52:13.751Z,8.53
2018-12-13T12:54:46.620Z,8.60
2018-12-13T12:57:17.376Z,8.83
2018-12-13T12:59:48.279Z,8.57
2018-12-13T13:02:22.451Z,8.57
2018-12-13T13:04:54.458Z,9.37
2018-12-13T13:07:29.442Z,7.90
2018-12-13T13:10:03.055Z,8.23
2018-12-13T13:12:34.254Z,8.30
2018-12-13T13:15:05.998Z,8.10
2018-12-13T13:17:38.391Z,7.57
2018-12-13T13:20:11.739Z,7.87
2018-12-13T13:22:40.731Z,8.27
2018-12-13T13:25:10.338Z,7.77
2018-12-13T13:27:39.726Z,7.50
2018-12-13T13:30:12.190Z,8.00
2018-12-13T13:32:44.741Z,7.53
2018-12-13T13:35:20.002Z,7.10
2018-12-13T13:37:53.147Z,7.63
2018-12-13T13:40:26.603Z,6.67
2018-12-13T13:42:59.531Z,6.20
2018-12-13T13:45:31.256Z,5.93
2018-12-13T13:48:02.506Z,6.10
2018-12-13T13:50:33.103Z,6.67
2018-12-13T13:53:04.014Z,5.60
2018-12-13T13:55:33.027Z,6.20
2018-12-13T13:58:06.943Z,6.70
2018-12-13T14:00:37.379Z,6.17
2018-12-13T14:03:12.543Z,6.10
2018-12-13T14:05:43.088Z,5.90
2018-12-13T14:08:17.784Z,5.93
2018-12-13T14:10:50.294Z,4.80
2018-12-13T14:13:21.390Z,5.13
2018-12-13T14:15:54.722Z,5.97
2018-12-13T14:18:25.035Z,4.97
2018-12-13T14:20:57.342Z,5.17
2018-12-13T14:23:29.774Z,4.53
2018-12-13T14:26:05.360Z,4.77
2018-12-13T14:28:40.438Z,5.27
2018-12-13T14:31:15.479Z,5.73
2018-12-13T14:33:46.066Z,4.77
2018-12-13T14:36:19.078Z,4.50
2018-12-13T14:38:52.222Z,5.00
2018-12-13T14:41:23.662Z,4.40
2018-12-13T14:43:55.874Z,4.50
2018-12-13T14:46:28.729Z,4.40
2018-12-13T14:49:01.951Z,5.40
2018-12-13T14:51:35.423Z,4.80
2018-12-13T14:54:06.631Z,4.50
2018-12-13T14:56:41.329Z,4.97
2018-12-13T14:59:14.198Z,5.97
2018-12-13T15:01:45.458Z,5.07
2018-12-13T15:04:18.482Z,4.60
2018-12-13T15:06:53.725Z,5.13
2018-12-13T15:09:22.998Z,4.53
2018-12-13T15:11:56.281Z,5.63
2018-12-13T15:14:29.020Z,4.67
2018-12-13T15:17:00.995Z,4.90
2018-12-13T15:19:33.142Z,5.13
2018-12-13T15:22:03.850Z,5.30
2018-12-13T15:24:34.503Z,4.77
2018-12-13T15:27:08.103Z,4.90
2018-12-13T15:29:43.087Z,5.57
2018-12-13T15:32:12.492Z,4.93
2018-12-13T15:34:47.706Z,5.50
2018-12-13T15:37:20.427Z,5.50
2018-12-13T15:39:49.570Z,5.10
2018-12-13T15:42:21.948Z,5.93
2018-12-13T15:44:53.170Z,5.57
2018-12-13T15:47:24.490Z,5.30
2018-12-13T15:49:55.327Z,4.87
2018-12-13T15:52:24.734Z,5.43
2018-12-13T15:54:56.767Z,5.80
2018-12-13T15:57:32.143Z,5.13
2018-12-13T16:00:11.277Z,4.83
2018-12-13T16:02:44.831Z,5.50
2018-12-13T16:05:18.274Z,5.60
2018-12-13T16:07:47.323Z,5.63
2018-12-13T16:10:18.522Z,5.13
2018-12-13T16:12:51.792Z,5.37
2018-12-13T16:15:24.519Z,5.30
2018-12-13T16:17:55.658Z,5.60
2018-12-13T16:20:28.978Z,5.90
2018-12-13T16:23:02.049Z,6.03
2018-12-13T16:25:36.935Z,5.10
2018-12-13T16:28:08.102Z,5.67
2018-12-13T16:30:37.482Z,4.70
2018-12-13T16:33:07.967Z,5.37
2018-12-13T16:35:43.054Z,5.70
2018-12-13T16:38:13.883Z,4.60
2018-12-13T16:40:44.176Z,5.00
2018-12-13T16:43:16.243Z,5.13
2018-12-13T16:45:51.280Z,4.53
2018-12-13T16:48:23.781Z,5.37
2018-12-13T16:50:58.954Z,4.43
2018-12-13T16:53:31.414Z,4.73
2018-12-13T16:56:01.083Z,5.40
2018-12-13T16:58:30.428Z,5.90
2018-12-13T17:01:00.414Z,5.27
2018-12-13T17:03:41.909Z,4.83
2018-12-13T17:06:14.539Z,4.47
2018-12-13T17:08:45.631Z,5.10
2018-12-13T17:11:18.659Z,5.10
2018-12-13T17:13:53.783Z,4.93
2018-12-13T17:16:26.982Z,5.00
2018-12-13T17:18:59.782Z,5.20
2018-12-13T17:21:30.917Z,5.03
2018-12-13T17:24:03.627Z,4.23
2018-12-13T17:26:35.234Z,4.50
2018-12-13T17:29:10.406Z,4.70
2018-12-13T17:31:40.188Z,5.33
2018-12-13T17:34:10.093Z,5.33
2018-12-13T17:36:42.386Z,5.10
2018-12-13T17:39:15.274Z,5.63
2018-12-13T17:41:44.690Z,5.13
2018-12-13T17:44:17.625Z,5.03
2018-12-13T17:46:50.275Z,4.47
2018-12-13T17:49:25.515Z,4.40
2018-12-13T17:52:01.054Z,5.43
2018-12-13T17:54:35.938Z,4.53
2018-12-13T17:57:08.747Z,4.40
2018-12-13T17:59:42.063Z,4.67
2018-12-13T18:02:17.028Z,5.10
2018-12-13T18:04:51.987Z,5.40
2018-12-13T18:07:25.726Z,5.13
2018-12-13T18:09:59.249Z,4.93
2018-12-13T18:12:31.875Z,4.17
2018-12-13T18:15:04.922Z,4.80
2018-12-13T18:17:36.654Z,5.07
2018-12-13T18:20:08.155Z,5.37
2018-12-13T18:22:37.186Z,4.90
2018-12-13T18:25:12.413Z,4.83
2018-12-13T18:27:42.927Z,4.90
2018-12-13T18:30:14.266Z,5.43
2018-12-13T18:32:49.647Z,5.33
2018-12-13T18:35:24.294Z,5.67
2018-12-13T18:37:53.314Z,5.93
2018-12-13T18:40:24.573Z,5.33
2018-12-13T18:42:56.266Z,5.37
2018-12-13T18:45:28.472Z,5.53
2018-12-13T18:47:57.585Z,5.37
2018-12-13T18:50:27.329Z,7.27
2018-12-13T18:53:02.806Z,5.80
2018-12-13T18:55:31.915Z,5.27
2018-12-13T18:58:06.307Z,5.40
2018-12-13T19:00:37.852Z,5.73
2018-12-13T19:03:11.339Z,6.03
2018-12-13T19:05:46.214Z,6.10
2018-12-13T19:08:22.481Z,5.93
2018-12-13T19:10:55.808Z,6.50
2018-12-13T19:13:31.455Z,5.97
2018-12-13T19:16:06.770Z,6.47
2018-12-13T19:18:35.817Z,5.73
2018-12-13T19:21:05.547Z,5.73
2018-12-13T19:23:37.674Z,5.37
2018-12-13T19:26:10.039Z,5.90
2018-12-13T19:28:39.698Z,6.07
2018-12-13T19:31:11.969Z,5.40
2018-12-13T19:33:41.934Z,6.73
2018-12-13T19:36:12.333Z,7.43
2018-12-13T19:38:43.183Z,7.17
2018-12-13T19:41:12.203Z,5.97
2018-12-13T19:43:41.698Z,7.00
2018-12-13T19:46:14.589Z,6.17
2018-12-13T19:48:49.466Z,5.77
2018-12-13T19:51:22.193Z,6.20
2018-12-13T19:53:53.162Z,5.47
2018-12-13T19:56:28.575Z,6.03
2018-12-13T19:59:04.150Z,7.27
2018-12-13T20:01:38.676Z,7.10
2018-12-13T20:04:08.570Z,7.07
2018-12-13T20:06:44.547Z,6.83
2018-12-13T20:09:19.347Z,6.67
2018-12-13T20:11:51.550Z,6.27
2018-12-13T20:14:22.658Z,6.20
2018-12-13T20:16:57.709Z,7.13
2018-12-13T20:19:29.675Z,7.83
2018-12-13T20:21:58.679Z,6.60
2018-12-13T20:24:31.499Z,6.87
2018-12-13T20:27:02.765Z,6.60
2018-12-13T20:29:38.667Z,7.47
2018-12-13T20:32:08.151Z,7.33
2018-12-13T20:34:37.199Z,7.57
2018-12-13T20:37:09.794Z,7.00
2018-12-13T20:39:40.811Z,7.13
2018-12-13T20:42:15.362Z,7.77
2018-12-13T20:44:54.419Z,7.70
2018-12-13T20:47:25.922Z,7.30
2018-12-13T20:50:00.989Z,7.57
2018-12-13T20:52:34.102Z,7.63
2018-12-13T20:55:06.173Z,9.00
2018-12-13T20:57:39.336Z,8.40
2018-12-13T21:00:14.959Z,8.40
2018-12-13T21:02:47.934Z,8.10
2018-12-13T21:05:21.426Z,8.60
2018-12-13T21:07:52.803Z,8.30
2018-12-13T21:10:24.807Z,8.73
2018-12-13T21:12:56.275Z,8.13
2018-12-13T21:15:29.404Z,9.13
2018-12-13T21:18:02.602Z,8.83
2018-12-13T21:20:34.343Z,8.63
2018-12-13T21:23:04.491Z,9.93
2018-12-13T21:25:33.900Z,9.03
2018-12-13T21:28:09.011Z,9.17
2018-12-13T21:30:41.904Z,8.73
2018-12-13T21:33:17.067Z,9.77
2018-12-13T21:35:47.527Z,8.57
2018-12-13T21:38:18.223Z,9.27
2018-12-13T21:40:47.218Z,9.20
2018-12-13T21:43:16.326Z,8.83
2018-12-13T21:45:46.549Z,10.43
2018-12-13T21:48:16.703Z,9.23
2018-12-13T21:50:50.072Z,9.80
2018-12-13T21:53:21.175Z,9.90
2018-12-13T21:55:51.871Z,10.13
2018-12-13T21:58:26.100Z,9.47
2018-12-13T22:00:59.311Z,9.27
2018-12-13T22:03:30.062Z,9.27
2018-12-13T22:05:59.479Z,10.10
2018-12-13T22:08:32.215Z,10.47
2018-12-13T22:11:04.635Z,10.47
2018-12-13T22:13:38.679Z,10.07
2018-12-13T22:16:11.667Z,9.63
2018-12-13T22:18:47.031Z,10.30
2018-12-13T22:21:19.787Z,9.07
2018-12-13T22:23:51.211Z,10.17
2018-12-13T22:26:25.596Z,9.70
2018-12-13T22:28:55.740Z,10.23
2018-12-13T22:31:30.389Z,9.93
2018-12-13T22:34:03.398Z,10.27
2018-12-13T22:36:39.038Z,10.83
2018-12-13T22:39:15.298Z,10.50
2018-12-13T22:41:44.883Z,10.63
2018-12-13T22:44:16.114Z,9.93
2018-12-13T22:46:49.190Z,10.73
2018-12-13T22:49:21.264Z,10.73
2018-12-13T22:51:54.083Z,10.90
2018-12-13T22:54:27.202Z,9.53
2018-12-13T22:56:59.999Z,10.40
2018-12-13T22:59:33.267Z,10.80
2018-12-13T23:02:03.006Z,10.40
2018-12-13T23:04:35.976Z,9.93
2018-12-13T23:07:07.069Z,10.03
2018-12-13T23:09:42.027Z,10.27
2018-12-13T23:12:15.231Z,10.60
2018-12-13T23:14:45.964Z,10.57
2018-12-13T23:17:16.463Z,10.97
2018-12-13T23:19:49.135Z,10.03
2018-12-13T23:22:21.867Z,11.07
2018-12-13T23:24:56.827Z,10.00
2018-12-13T23:27:26.683Z,10.73
2018-12-13T23:29:59.859Z,10.73
2018-12-13T23:32:32.683Z,10.63
2018-12-13T23:35:07.572Z,10.67
2018-12-13T23:37:40.287Z,10.53
2018-12-13T23:40:14.878Z,11.17
2018-12-13T23:42:45.592Z,10.37
2018-12-13T23:45:20.071Z,11.13
2018-12-13T23:47:49.450Z,10.97
2018-12-13T23:50:24.966Z,10.77
2018-12-13T23:52:53.957Z,10.63
2018-12-13T23:55:22.938Z,11.00
2018-12-13T23:57:55.571Z,11.27
